sensor_id;sensor_type;location;lat;lon;timestamp;P1;durP1;ratioP1;P2;durP2;ratioP2
70148;SDS011;57514;52.164;5.282;2022-11-06T00:01:47;9.82;;;3.38;;
70148;SDS011;57514;52.164;5.282;2022-11-06T00:04:16;10.48;;;3.58;;
70148;SDS011;57514;52.164;5.282;2022-11-06T00:06:44;11.30;;;3.90;;
70148;SDS011;57514;52.164;5.282;2022-11-06T00:09:17;8.02;;;3.10;;
70148;SDS011;57514;52.164;5.282;2022-11-06T00:11:45;9.68;;;3.72;;
70148;SDS011;57514;52.164;5.282;2022-11-06T00:14:13;10.63;;;4.07;;
70148;SDS011;57514;52.164;5.282;2022-11-06T00:16:41;9.98;;;3.95;;
70148;SDS011;57514;52.164;5.282;2022-11-06T00:19:08;9.73;;;3.38;;
70148;SDS011;57514;52.164;5.282;2022-11-06T00:21:36;9.38;;;3.03;;
70148;SDS011;57514;52.164;5.282;2022-11-06T00:24:04;13.55;;;4.10;;
70148;SDS011;57514;52.164;5.282;2022-11-06T00:26:32;12.95;;;3.92;;
70148;SDS011;57514;52.164;5.282;2022-11-06T00:28:59;10.27;;;3.70;;
70148;SDS011;57514;52.164;5.282;2022-11-06T00:31:36;12.45;;;4.32;;
70148;SDS011;57514;52.164;5.282;2022-11-06T00:34:05;14.10;;;4.55;;
70148;SDS011;57514;52.164;5.282;2022-11-06T00:36:33;8.43;;;3.20;;
70148;SDS011;57514;52.164;5.282;2022-11-06T00:39:00;9.30;;;4.18;;
70148;SDS011;57514;52.164;5.282;2022-11-06T00:41:28;14.80;;;4.88;;
70148;SDS011;57514;52.164;5.282;2022-11-06T00:43:56;7.45;;;2.83;;
70148;SDS011;57514;52.164;5.282;2022-11-06T00:46:24;12.18;;;3.97;;
70148;SDS011;57514;52.164;5.282;2022-11-06T00:48:51;9.95;;;3.28;;
70148;SDS011;57514;52.164;5.282;2022-11-06T00:51:20;10.65;;;3.42;;
70148;SDS011;57514;52.164;5.282;2022-11-06T00:53:51;8.90;;;3.40;;
70148;SDS011;57514;52.164;5.282;2022-11-06T00:56:19;10.32;;;4.63;;
70148;SDS011;57514;52.164;5.282;2022-11-06T00:58:46;11.57;;;4.05;;
70148;SDS011;57514;52.164;5.282;2022-11-06T01:01:15;12.65;;;4.80;;
70148;SDS011;57514;52.164;5.282;2022-11-06T01:03:44;10.80;;;4.05;;
70148;SDS011;57514;52.164;5.282;2022-11-06T01:06:16;9.20;;;3.67;;
70148;SDS011;57514;52.164;5.282;2022-11-06T01:08:44;7.60;;;3.03;;
70148;SDS011;57514;52.164;5.282;2022-11-06T01:11:13;11.32;;;3.95;;
70148;SDS011;57514;52.164;5.282;2022-11-06T01:13:40;15.98;;;4.78;;
70148;SDS011;57514;52.164;5.282;2022-11-06T01:16:10;8.63;;;3.20;;
70148;SDS011;57514;52.164;5.282;2022-11-06T01:18:38;12.57;;;3.55;;
70148;SDS011;57514;52.164;5.282;2022-11-06T01:21:06;7.88;;;3.25;;
70148;SDS011;57514;52.164;5.282;2022-11-06T01:23:33;8.73;;;3.35;;
70148;SDS011;57514;52.164;5.282;2022-11-06T01:26:01;9.00;;;3.78;;
70148;SDS011;57514;52.164;5.282;2022-11-06T01:28:29;10.57;;;4.22;;
70148;SDS011;57514;52.164;5.282;2022-11-06T01:31:04;10.93;;;3.17;;
70148;SDS011;57514;52.164;5.282;2022-11-06T01:33:31;10.07;;;3.58;;
70148;SDS011;57514;52.164;5.282;2022-11-06T01:35:58;9.10;;;3.67;;
70148;SDS011;57514;52.164;5.282;2022-11-06T01:38:25;9.90;;;4.15;;
70148;SDS011;57514;52.164;5.282;2022-11-06T01:40:52;10.68;;;4.07;;
70148;SDS011;57514;52.164;5.282;2022-11-06T01:43:22;10.32;;;3.90;;
70148;SDS011;57514;52.164;5.282;2022-11-06T01:45:53;11.75;;;3.50;;
70148;SDS011;57514;52.164;5.282;2022-11-06T01:48:24;8.38;;;2.55;;
70148;SDS011;57514;52.164;5.282;2022-11-06T01:50:55;11.68;;;4.70;;
70148;SDS011;57514;52.164;5.282;2022-11-06T01:53:24;10.40;;;4.10;;
70148;SDS011;57514;52.164;5.282;2022-11-06T01:55:52;8.82;;;3.67;;
70148;SDS011;57514;52.164;5.282;2022-11-06T01:58:21;9.00;;;2.95;;
70148;SDS011;57514;52.164;5.282;2022-11-06T02:00:50;9.07;;;3.58;;
70148;SDS011;57514;52.164;5.282;2022-11-06T02:03:17;11.05;;;4.10;;
70148;SDS011;57514;52.164;5.282;2022-11-06T02:05:45;8.60;;;3.15;;
70148;SDS011;57514;52.164;5.282;2022-11-06T02:08:13;8.25;;;3.33;;
70148;SDS011;57514;52.164;5.282;2022-11-06T02:10:42;10.60;;;4.00;;
70148;SDS011;57514;52.164;5.282;2022-11-06T02:15:48;13.70;;;3.85;;
70148;SDS011;57514;52.164;5.282;2022-11-06T02:18:20;10.15;;;4.00;;
70148;SDS011;57514;52.164;5.282;2022-11-06T02:23:36;8.63;;;3.30;;
70148;SDS011;57514;52.164;5.282;2022-11-06T02:29:07;8.95;;;3.58;;
70148;SDS011;57514;52.164;5.282;2022-11-06T02:31:36;8.75;;;3.17;;
70148;SDS011;57514;52.164;5.282;2022-11-06T02:34:05;12.18;;;3.85;;
70148;SDS011;57514;52.164;5.282;2022-11-06T02:36:36;8.70;;;3.83;;
70148;SDS011;57514;52.164;5.282;2022-11-06T02:39:15;11.15;;;3.58;;
70148;SDS011;57514;52.164;5.282;2022-11-06T02:41:45;8.25;;;3.03;;
70148;SDS011;57514;52.164;5.282;2022-11-06T02:44:14;11.25;;;3.85;;
70148;SDS011;57514;52.164;5.282;2022-11-06T02:46:48;7.13;;;2.88;;
70148;SDS011;57514;52.164;5.282;2022-11-06T02:49:18;10.02;;;3.20;;
70148;SDS011;57514;52.164;5.282;2022-11-06T02:51:49;9.43;;;3.38;;
70148;SDS011;57514;52.164;5.282;2022-11-06T02:54:19;11.77;;;3.50;;
70148;SDS011;57514;52.164;5.282;2022-11-06T02:56:49;11.35;;;3.15;;
70148;SDS011;57514;52.164;5.282;2022-11-06T02:59:18;9.63;;;3.80;;
70148;SDS011;57514;52.164;5.282;2022-11-06T03:01:48;6.88;;;2.67;;
70148;SDS011;57514;52.164;5.282;2022-11-06T03:04:19;10.90;;;3.63;;
70148;SDS011;57514;52.164;5.282;2022-11-06T03:06:50;7.38;;;2.92;;
70148;SDS011;57514;52.164;5.282;2022-11-06T03:09:19;6.93;;;2.95;;
70148;SDS011;57514;52.164;5.282;2022-11-06T03:11:52;9.35;;;3.33;;
70148;SDS011;57514;52.164;5.282;2022-11-06T03:14:28;9.52;;;3.22;;
70148;SDS011;57514;52.164;5.282;2022-11-06T03:16:59;5.80;;;2.25;;
70148;SDS011;57514;52.164;5.282;2022-11-06T03:19:28;10.13;;;3.22;;
70148;SDS011;57514;52.164;5.282;2022-11-06T03:22:01;10.50;;;2.92;;
70148;SDS011;57514;52.164;5.282;2022-11-06T03:24:34;8.48;;;3.20;;
70148;SDS011;57514;52.164;5.282;2022-11-06T03:27:08;10.63;;;3.05;;
70148;SDS011;57514;52.164;5.282;2022-11-06T03:29:40;5.57;;;2.42;;
70148;SDS011;57514;52.164;5.282;2022-11-06T03:32:14;7.68;;;2.65;;
70148;SDS011;57514;52.164;5.282;2022-11-06T03:34:47;12.35;;;3.70;;
70148;SDS011;57514;52.164;5.282;2022-11-06T03:37:18;13.23;;;3.55;;
70148;SDS011;57514;52.164;5.282;2022-11-06T03:39:51;9.52;;;3.40;;
70148;SDS011;57514;52.164;5.282;2022-11-06T03:42:23;8.90;;;2.80;;
70148;SDS011;57514;52.164;5.282;2022-11-06T03:44:53;9.23;;;3.30;;
70148;SDS011;57514;52.164;5.282;2022-11-06T03:50:01;8.52;;;2.88;;
70148;SDS011;57514;52.164;5.282;2022-11-06T03:52:33;6.85;;;2.28;;
70148;SDS011;57514;52.164;5.282;2022-11-06T03:55:03;7.40;;;2.65;;
70148;SDS011;57514;52.164;5.282;2022-11-06T03:57:35;8.52;;;3.25;;
70148;SDS011;57514;52.164;5.282;2022-11-06T04:00:03;9.20;;;2.92;;
70148;SDS011;57514;52.164;5.282;2022-11-06T04:02:37;9.65;;;3.40;;
70148;SDS011;57514;52.164;5.282;2022-11-06T04:05:07;11.05;;;3.38;;
70148;SDS011;57514;52.164;5.282;2022-11-06T04:07:35;10.65;;;3.38;;
70148;SDS011;57514;52.164;5.282;2022-11-06T04:10:05;6.82;;;3.13;;
70148;SDS011;57514;52.164;5.282;2022-11-06T04:12:52;7.63;;;3.05;;
70148;SDS011;57514;52.164;5.282;2022-11-06T04:15:50;8.50;;;2.65;;
70148;SDS011;57514;52.164;5.282;2022-11-06T04:18:18;8.75;;;3.08;;
70148;SDS011;57514;52.164;5.282;2022-11-06T04:26:39;7.25;;;2.13;;
70148;SDS011;57514;52.164;5.282;2022-11-06T04:29:13;7.53;;;2.15;;
70148;SDS011;57514;52.164;5.282;2022-11-06T04:31:47;9.40;;;2.92;;
70148;SDS011;57514;52.164;5.282;2022-11-06T04:36:49;10.10;;;3.08;;
70148;SDS011;57514;52.164;5.282;2022-11-06T04:39:34;6.63;;;2.38;;
70148;SDS011;57514;52.164;5.282;2022-11-06T04:42:24;6.70;;;2.20;;
70148;SDS011;57514;52.164;5.282;2022-11-06T04:44:57;12.70;;;2.83;;
70148;SDS011;57514;52.164;5.282;2022-11-06T04:47:25;10.38;;;3.22;;
70148;SDS011;57514;52.164;5.282;2022-11-06T04:49:55;11.07;;;3.28;;
70148;SDS011;57514;52.164;5.282;2022-11-06T04:52:24;8.18;;;2.58;;
70148;SDS011;57514;52.164;5.282;2022-11-06T04:54:53;9.27;;;2.60;;
70148;SDS011;57514;52.164;5.282;2022-11-06T04:57:22;10.48;;;3.38;;
70148;SDS011;57514;52.164;5.282;2022-11-06T04:59:49;8.82;;;2.40;;
70148;SDS011;57514;52.164;5.282;2022-11-06T05:02:17;8.50;;;2.72;;
70148;SDS011;57514;52.164;5.282;2022-11-06T05:04:44;9.20;;;2.75;;
70148;SDS011;57514;52.164;5.282;2022-11-06T05:07:12;7.20;;;2.00;;
70148;SDS011;57514;52.164;5.282;2022-11-06T05:09:40;7.78;;;2.88;;
70148;SDS011;57514;52.164;5.282;2022-11-06T05:12:07;11.80;;;3.28;;
70148;SDS011;57514;52.164;5.282;2022-11-06T05:14:34;13.02;;;3.08;;
70148;SDS011;57514;52.164;5.282;2022-11-06T05:17:01;14.93;;;3.13;;
70148;SDS011;57514;52.164;5.282;2022-11-06T05:19:28;13.30;;;3.83;;
70148;SDS011;57514;52.164;5.282;2022-11-06T05:21:55;11.15;;;2.67;;
70148;SDS011;57514;52.164;5.282;2022-11-06T05:24:41;8.18;;;2.83;;
70148;SDS011;57514;52.164;5.282;2022-11-06T05:27:08;11.65;;;2.90;;
70148;SDS011;57514;52.164;5.282;2022-11-06T05:29:35;9.23;;;2.92;;
70148;SDS011;57514;52.164;5.282;2022-11-06T05:32:02;9.48;;;2.35;;
70148;SDS011;57514;52.164;5.282;2022-11-06T05:34:30;20.35;;;3.67;;
70148;SDS011;57514;52.164;5.282;2022-11-06T05:36:57;7.22;;;2.20;;
70148;SDS011;57514;52.164;5.282;2022-11-06T05:39:24;9.02;;;2.88;;
70148;SDS011;57514;52.164;5.282;2022-11-06T05:41:51;7.60;;;2.53;;
70148;SDS011;57514;52.164;5.282;2022-11-06T05:44:19;10.65;;;2.88;;
70148;SDS011;57514;52.164;5.282;2022-11-06T05:46:46;10.50;;;2.65;;
70148;SDS011;57514;52.164;5.282;2022-11-06T05:49:16;7.35;;;2.70;;
70148;SDS011;57514;52.164;5.282;2022-11-06T05:51:47;10.15;;;2.63;;
70148;SDS011;57514;52.164;5.282;2022-11-06T05:54:14;9.95;;;3.00;;
70148;SDS011;57514;52.164;5.282;2022-11-06T05:56:41;7.10;;;2.38;;
70148;SDS011;57514;52.164;5.282;2022-11-06T05:59:08;10.45;;;2.90;;
70148;SDS011;57514;52.164;5.282;2022-11-06T06:01:36;7.80;;;2.72;;
70148;SDS011;57514;52.164;5.282;2022-11-06T06:04:03;10.25;;;3.15;;
70148;SDS011;57514;52.164;5.282;2022-11-06T06:06:31;5.53;;;2.13;;
70148;SDS011;57514;52.164;5.282;2022-11-06T06:08:58;8.60;;;2.60;;
70148;SDS011;57514;52.164;5.282;2022-11-06T06:11:25;5.20;;;2.50;;
70148;SDS011;57514;52.164;5.282;2022-11-06T06:13:52;8.63;;;2.85;;
70148;SDS011;57514;52.164;5.282;2022-11-06T06:16:19;15.90;;;2.78;;
70148;SDS011;57514;52.164;5.282;2022-11-06T06:18:47;8.75;;;2.60;;
70148;SDS011;57514;52.164;5.282;2022-11-06T06:21:15;6.25;;;2.28;;
70148;SDS011;57514;52.164;5.282;2022-11-06T06:23:43;15.98;;;2.63;;
70148;SDS011;57514;52.164;5.282;2022-11-06T06:26:11;8.60;;;2.75;;
70148;SDS011;57514;52.164;5.282;2022-11-06T06:28:38;7.70;;;2.70;;
70148;SDS011;57514;52.164;5.282;2022-11-06T06:31:05;11.23;;;2.45;;
70148;SDS011;57514;52.164;5.282;2022-11-06T06:33:32;7.80;;;2.05;;
70148;SDS011;57514;52.164;5.282;2022-11-06T06:36:03;6.10;;;2.50;;
70148;SDS011;57514;52.164;5.282;2022-11-06T06:38:30;9.90;;;2.60;;
70148;SDS011;57514;52.164;5.282;2022-11-06T06:41:01;8.65;;;2.13;;
70148;SDS011;57514;52.164;5.282;2022-11-06T06:43:29;6.93;;;2.10;;
70148;SDS011;57514;52.164;5.282;2022-11-06T06:45:59;7.72;;;2.90;;
70148;SDS011;57514;52.164;5.282;2022-11-06T06:48:27;5.80;;;2.05;;
70148;SDS011;57514;52.164;5.282;2022-11-06T06:50:58;6.57;;;2.33;;
70148;SDS011;57514;52.164;5.282;2022-11-06T06:53:26;10.73;;;3.20;;
70148;SDS011;57514;52.164;5.282;2022-11-06T06:55:53;4.53;;;2.00;;
70148;SDS011;57514;52.164;5.282;2022-11-06T06:58:21;7.03;;;2.95;;
70148;SDS011;57514;52.164;5.282;2022-11-06T07:00:48;8.20;;;2.45;;
70148;SDS011;57514;52.164;5.282;2022-11-06T07:03:16;11.32;;;2.95;;
70148;SDS011;57514;52.164;5.282;2022-11-06T07:05:43;5.22;;;2.20;;
70148;SDS011;57514;52.164;5.282;2022-11-06T07:08:11;9.90;;;2.97;;
70148;SDS011;57514;52.164;5.282;2022-11-06T07:10:49;9.77;;;2.70;;
70148;SDS011;57514;52.164;5.282;2022-11-06T07:13:16;8.15;;;2.30;;
70148;SDS011;57514;52.164;5.282;2022-11-06T07:15:43;13.05;;;3.45;;
70148;SDS011;57514;52.164;5.282;2022-11-06T07:18:11;9.10;;;3.50;;
70148;SDS011;57514;52.164;5.282;2022-11-06T07:20:38;6.07;;;2.35;;
70148;SDS011;57514;52.164;5.282;2022-11-06T07:23:06;7.93;;;3.20;;
70148;SDS011;57514;52.164;5.282;2022-11-06T07:25:34;11.05;;;2.97;;
70148;SDS011;57514;52.164;5.282;2022-11-06T07:28:01;7.72;;;2.85;;
70148;SDS011;57514;52.164;5.282;2022-11-06T07:30:29;8.77;;;2.92;;
70148;SDS011;57514;52.164;5.282;2022-11-06T07:33:00;7.90;;;2.83;;
70148;SDS011;57514;52.164;5.282;2022-11-06T07:35:28;8.25;;;2.30;;
70148;SDS011;57514;52.164;5.282;2022-11-06T07:37:56;7.80;;;2.50;;
70148;SDS011;57514;52.164;5.282;2022-11-06T07:40:23;8.80;;;2.80;;
70148;SDS011;57514;52.164;5.282;2022-11-06T07:42:50;9.68;;;3.20;;
70148;SDS011;57514;52.164;5.282;2022-11-06T07:45:18;5.03;;;2.05;;
70148;SDS011;57514;52.164;5.282;2022-11-06T07:47:46;7.68;;;2.70;;
70148;SDS011;57514;52.164;5.282;2022-11-06T07:50:13;11.20;;;3.00;;
70148;SDS011;57514;52.164;5.282;2022-11-06T07:52:40;9.30;;;2.72;;
70148;SDS011;57514;52.164;5.282;2022-11-06T07:55:08;5.80;;;2.15;;
70148;SDS011;57514;52.164;5.282;2022-11-06T07:57:35;8.60;;;2.85;;
70148;SDS011;57514;52.164;5.282;2022-11-06T08:00:04;9.57;;;2.85;;
70148;SDS011;57514;52.164;5.282;2022-11-06T08:02:37;7.95;;;2.47;;
70148;SDS011;57514;52.164;5.282;2022-11-06T08:05:05;7.82;;;2.53;;
70148;SDS011;57514;52.164;5.282;2022-11-06T08:07:32;6.35;;;2.47;;
70148;SDS011;57514;52.164;5.282;2022-11-06T08:09:59;3.70;;;1.95;;
70148;SDS011;57514;52.164;5.282;2022-11-06T08:12:26;6.10;;;2.28;;
70148;SDS011;57514;52.164;5.282;2022-11-06T08:14:53;7.88;;;2.50;;
70148;SDS011;57514;52.164;5.282;2022-11-06T08:17:22;6.22;;;2.30;;
70148;SDS011;57514;52.164;5.282;2022-11-06T08:19:49;5.25;;;2.03;;
70148;SDS011;57514;52.164;5.282;2022-11-06T08:22:17;11.07;;;2.47;;
70148;SDS011;57514;52.164;5.282;2022-11-06T08:24:44;9.60;;;3.33;;
70148;SDS011;57514;52.164;5.282;2022-11-06T08:27:11;6.55;;;2.17;;
70148;SDS011;57514;52.164;5.282;2022-11-06T08:29:39;6.35;;;2.13;;
70148;SDS011;57514;52.164;5.282;2022-11-06T08:32:07;6.35;;;2.30;;
70148;SDS011;57514;52.164;5.282;2022-11-06T08:34:34;8.60;;;2.42;;
70148;SDS011;57514;52.164;5.282;2022-11-06T08:37:02;6.18;;;1.83;;
70148;SDS011;57514;52.164;5.282;2022-11-06T08:39:29;4.85;;;1.77;;
70148;SDS011;57514;52.164;5.282;2022-11-06T08:41:56;6.50;;;2.40;;
70148;SDS011;57514;52.164;5.282;2022-11-06T08:44:23;4.80;;;2.03;;
70148;SDS011;57514;52.164;5.282;2022-11-06T08:46:51;7.53;;;2.30;;
70148;SDS011;57514;52.164;5.282;2022-11-06T08:49:18;7.40;;;2.50;;
70148;SDS011;57514;52.164;5.282;2022-11-06T08:51:45;9.07;;;2.10;;
70148;SDS011;57514;52.164;5.282;2022-11-06T08:54:13;6.32;;;1.88;;
70148;SDS011;57514;52.164;5.282;2022-11-06T08:56:42;7.50;;;2.35;;
70148;SDS011;57514;52.164;5.282;2022-11-06T08:59:10;7.75;;;2.45;;
70148;SDS011;57514;52.164;5.282;2022-11-06T09:01:37;9.38;;;2.78;;
70148;SDS011;57514;52.164;5.282;2022-11-06T09:04:04;8.00;;;2.20;;
70148;SDS011;57514;52.164;5.282;2022-11-06T09:06:32;7.93;;;1.83;;
70148;SDS011;57514;52.164;5.282;2022-11-06T09:08:59;9.98;;;2.58;;
70148;SDS011;57514;52.164;5.282;2022-11-06T09:11:26;7.47;;;1.80;;
70148;SDS011;57514;52.164;5.282;2022-11-06T09:13:54;6.68;;;2.40;;
70148;SDS011;57514;52.164;5.282;2022-11-06T09:16:21;9.23;;;2.10;;
70148;SDS011;57514;52.164;5.282;2022-11-06T09:18:50;8.18;;;2.00;;
70148;SDS011;57514;52.164;5.282;2022-11-06T09:21:17;6.82;;;2.53;;
70148;SDS011;57514;52.164;5.282;2022-11-06T09:23:44;7.00;;;1.73;;
70148;SDS011;57514;52.164;5.282;2022-11-06T09:26:13;8.48;;;1.90;;
70148;SDS011;57514;52.164;5.282;2022-11-06T09:28:52;5.78;;;1.60;;
70148;SDS011;57514;52.164;5.282;2022-11-06T09:31:25;8.18;;;2.25;;
70148;SDS011;57514;52.164;5.282;2022-11-06T09:33:52;6.10;;;2.05;;
70148;SDS011;57514;52.164;5.282;2022-11-06T09:36:20;5.50;;;1.95;;
70148;SDS011;57514;52.164;5.282;2022-11-06T09:38:48;5.03;;;1.85;;
70148;SDS011;57514;52.164;5.282;2022-11-06T09:46:43;6.55;;;2.20;;
70148;SDS011;57514;52.164;5.282;2022-11-06T09:49:15;4.60;;;1.77;;
70148;SDS011;57514;52.164;5.282;2022-11-06T09:54:18;5.65;;;1.80;;
70148;SDS011;57514;52.164;5.282;2022-11-06T09:56:49;5.57;;;1.65;;
70148;SDS011;57514;52.164;5.282;2022-11-06T09:59:27;3.35;;;1.40;;
70148;SDS011;57514;52.164;5.282;2022-11-06T10:01:57;5.70;;;1.90;;
70148;SDS011;57514;52.164;5.282;2022-11-06T10:04:40;9.18;;;1.92;;
70148;SDS011;57514;52.164;5.282;2022-11-06T10:07:30;5.57;;;1.80;;
70148;SDS011;57514;52.164;5.282;2022-11-06T10:09:59;5.60;;;1.42;;
70148;SDS011;57514;52.164;5.282;2022-11-06T10:12:30;5.32;;;1.80;;
70148;SDS011;57514;52.164;5.282;2022-11-06T10:15:25;4.90;;;1.85;;
70148;SDS011;57514;52.164;5.282;2022-11-06T10:18:00;6.10;;;1.77;;
70148;SDS011;57514;52.164;5.282;2022-11-06T10:20:38;4.68;;;1.98;;
70148;SDS011;57514;52.164;5.282;2022-11-06T10:23:19;5.82;;;2.10;;
70148;SDS011;57514;52.164;5.282;2022-11-06T10:26:01;5.65;;;1.40;;
70148;SDS011;57514;52.164;5.282;2022-11-06T10:34:28;5.18;;;1.65;;
70148;SDS011;57514;52.164;5.282;2022-11-06T10:36:56;9.07;;;1.90;;
70148;SDS011;57514;52.164;5.282;2022-11-06T10:39:29;7.90;;;2.00;;
70148;SDS011;57514;52.164;5.282;2022-11-06T10:41:58;7.20;;;1.83;;
70148;SDS011;57514;52.164;5.282;2022-11-06T10:44:34;5.35;;;1.75;;
70148;SDS011;57514;52.164;5.282;2022-11-06T10:47:03;6.25;;;1.80;;
70148;SDS011;57514;52.164;5.282;2022-11-06T10:54:37;4.90;;;1.77;;
70148;SDS011;57514;52.164;5.282;2022-11-06T10:57:26;6.47;;;1.83;;
70148;SDS011;57514;52.164;5.282;2022-11-06T10:59:54;6.90;;;2.00;;
70148;SDS011;57514;52.164;5.282;2022-11-06T11:02:34;4.43;;;1.42;;
70148;SDS011;57514;52.164;5.282;2022-11-06T11:05:13;5.93;;;1.23;;
70148;SDS011;57514;52.164;5.282;2022-11-06T11:07:41;5.05;;;1.58;;
70148;SDS011;57514;52.164;5.282;2022-11-06T11:12:55;3.53;;;1.58;;
70148;SDS011;57514;52.164;5.282;2022-11-06T11:16:09;5.93;;;1.70;;
70148;SDS011;57514;52.164;5.282;2022-11-06T11:18:26;5.03;;;1.40;;
70148;SDS011;57514;52.164;5.282;2022-11-06T11:21:13;6.53;;;1.73;;
70148;SDS011;57514;52.164;5.282;2022-11-06T11:26:30;6.20;;;2.03;;
70148;SDS011;57514;52.164;5.282;2022-11-06T11:29:02;7.72;;;2.30;;
70148;SDS011;57514;52.164;5.282;2022-11-06T11:31:37;9.05;;;1.75;;
70148;SDS011;57514;52.164;5.282;2022-11-06T11:34:06;7.30;;;2.08;;
70148;SDS011;57514;52.164;5.282;2022-11-06T11:36:57;10.18;;;2.50;;
70148;SDS011;57514;52.164;5.282;2022-11-06T11:39:27;6.07;;;1.73;;
70148;SDS011;57514;52.164;5.282;2022-11-06T11:42:03;4.90;;;1.45;;
70148;SDS011;57514;52.164;5.282;2022-11-06T11:44:42;5.80;;;1.98;;
70148;SDS011;57514;52.164;5.282;2022-11-06T11:47:20;6.07;;;1.73;;
70148;SDS011;57514;52.164;5.282;2022-11-06T11:49:47;6.85;;;1.92;;
70148;SDS011;57514;52.164;5.282;2022-11-06T11:52:16;4.97;;;1.67;;
70148;SDS011;57514;52.164;5.282;2022-11-06T11:54:49;4.90;;;1.50;;
70148;SDS011;57514;52.164;5.282;2022-11-06T11:57:17;7.50;;;1.67;;
70148;SDS011;57514;52.164;5.282;2022-11-06T11:59:57;6.35;;;1.75;;
70148;SDS011;57514;52.164;5.282;2022-11-06T12:02:27;5.40;;;1.58;;
70148;SDS011;57514;52.164;5.282;2022-11-06T12:04:57;5.43;;;1.42;;
70148;SDS011;57514;52.164;5.282;2022-11-06T12:07:26;4.75;;;1.67;;
70148;SDS011;57514;52.164;5.282;2022-11-06T12:09:54;5.00;;;1.95;;
70148;SDS011;57514;52.164;5.282;2022-11-06T12:12:32;8.65;;;1.63;;
70148;SDS011;57514;52.164;5.282;2022-11-06T12:15:48;3.88;;;1.55;;
70148;SDS011;57514;52.164;5.282;2022-11-06T12:17:53;5.05;;;1.13;;
70148;SDS011;57514;52.164;5.282;2022-11-06T12:20:25;2.83;;;1.50;;
70148;SDS011;57514;52.164;5.282;2022-11-06T12:22:54;2.47;;;1.45;;
70148;SDS011;57514;52.164;5.282;2022-11-06T12:25:26;7.43;;;1.63;;
70148;SDS011;57514;52.164;5.282;2022-11-06T12:27:57;7.65;;;1.92;;
70148;SDS011;57514;52.164;5.282;2022-11-06T12:30:24;7.30;;;1.65;;
70148;SDS011;57514;52.164;5.282;2022-11-06T12:32:58;5.40;;;1.60;;
70148;SDS011;57514;52.164;5.282;2022-11-06T12:35:27;4.07;;;1.40;;
70148;SDS011;57514;52.164;5.282;2022-11-06T12:38:04;6.93;;;2.03;;
70148;SDS011;57514;52.164;5.282;2022-11-06T12:40:35;5.90;;;1.60;;
70148;SDS011;57514;52.164;5.282;2022-11-06T12:43:12;5.15;;;1.48;;
70148;SDS011;57514;52.164;5.282;2022-11-06T12:45:59;6.35;;;1.70;;
70148;SDS011;57514;52.164;5.282;2022-11-06T12:48:32;6.18;;;1.73;;
70148;SDS011;57514;52.164;5.282;2022-11-06T12:56:31;5.43;;;1.58;;
70148;SDS011;57514;52.164;5.282;2022-11-06T13:04:06;7.68;;;1.90;;
70148;SDS011;57514;52.164;5.282;2022-11-06T13:07:00;5.32;;;1.52;;
70148;SDS011;57514;52.164;5.282;2022-11-06T13:09:31;12.50;;;2.05;;
70148;SDS011;57514;52.164;5.282;2022-11-06T13:12:07;6.20;;;1.63;;
70148;SDS011;57514;52.164;5.282;2022-11-06T13:14:40;8.35;;;2.10;;
70148;SDS011;57514;52.164;5.282;2022-11-06T13:17:12;6.85;;;1.83;;
70148;SDS011;57514;52.164;5.282;2022-11-06T13:19:49;7.55;;;1.92;;
70148;SDS011;57514;52.164;5.282;2022-11-06T13:27:23;6.05;;;2.05;;
70148;SDS011;57514;52.164;5.282;2022-11-06T13:29:53;6.18;;;1.95;;
70148;SDS011;57514;52.164;5.282;2022-11-06T13:32:23;4.60;;;1.60;;
70148;SDS011;57514;52.164;5.282;2022-11-06T13:34:51;11.77;;;2.30;;
70148;SDS011;57514;52.164;5.282;2022-11-06T13:37:24;4.82;;;1.77;;
70148;SDS011;57514;52.164;5.282;2022-11-06T13:39:55;8.88;;;2.30;;
70148;SDS011;57514;52.164;5.282;2022-11-06T13:42:35;10.63;;;3.05;;
70148;SDS011;57514;52.164;5.282;2022-11-06T13:45:07;7.43;;;1.70;;
70148;SDS011;57514;52.164;5.282;2022-11-06T13:50:43;5.22;;;1.65;;
70148;SDS011;57514;52.164;5.282;2022-11-06T13:53:16;4.38;;;1.73;;
70148;SDS011;57514;52.164;5.282;2022-11-06T14:03:56;6.60;;;1.88;;
70148;SDS011;57514;52.164;5.282;2022-11-06T14:06:26;8.02;;;1.77;;
70148;SDS011;57514;52.164;5.282;2022-11-06T14:09:05;4.35;;;1.67;;
70148;SDS011;57514;52.164;5.282;2022-11-06T14:11:35;7.65;;;1.92;;
70148;SDS011;57514;52.164;5.282;2022-11-06T14:14:03;7.18;;;2.13;;
70148;SDS011;57514;52.164;5.282;2022-11-06T14:16:40;10.27;;;2.30;;
70148;SDS011;57514;52.164;5.282;2022-11-06T14:19:12;12.43;;;2.80;;
70148;SDS011;57514;52.164;5.282;2022-11-06T14:24:32;5.82;;;1.85;;
70148;SDS011;57514;52.164;5.282;2022-11-06T14:27:01;9.00;;;2.50;;
70148;SDS011;57514;52.164;5.282;2022-11-06T14:32:00;6.55;;;1.63;;
70148;SDS011;57514;52.164;5.282;2022-11-06T14:34:31;10.82;;;2.67;;
70148;SDS011;57514;52.164;5.282;2022-11-06T14:36:58;8.35;;;2.47;;
70148;SDS011;57514;52.164;5.282;2022-11-06T14:42:42;7.32;;;2.28;;
70148;SDS011;57514;52.164;5.282;2022-11-06T14:52:46;11.88;;;2.60;;
70148;SDS011;57514;52.164;5.282;2022-11-06T14:55:22;5.93;;;1.88;;
70148;SDS011;57514;52.164;5.282;2022-11-06T14:57:50;4.55;;;1.88;;
70148;SDS011;57514;52.164;5.282;2022-11-06T15:02:58;7.80;;;2.08;;
70148;SDS011;57514;52.164;5.282;2022-11-06T15:05:25;6.47;;;1.70;;
70148;SDS011;57514;52.164;5.282;2022-11-06T15:07:54;9.00;;;2.10;;
70148;SDS011;57514;52.164;5.282;2022-11-06T15:15:44;7.53;;;2.05;;
70148;SDS011;57514;52.164;5.282;2022-11-06T15:18:13;9.07;;;2.40;;
70148;SDS011;57514;52.164;5.282;2022-11-06T15:20:41;7.60;;;2.15;;
70148;SDS011;57514;52.164;5.282;2022-11-06T15:23:16;10.10;;;2.03;;
70148;SDS011;57514;52.164;5.282;2022-11-06T15:25:56;6.25;;;1.75;;
70148;SDS011;57514;52.164;5.282;2022-11-06T15:28:27;6.35;;;2.40;;
70148;SDS011;57514;52.164;5.282;2022-11-06T15:31:03;5.57;;;2.03;;
70148;SDS011;57514;52.164;5.282;2022-11-06T15:33:35;3.58;;;1.52;;
70148;SDS011;57514;52.164;5.282;2022-11-06T15:36:05;8.00;;;1.90;;
70148;SDS011;57514;52.164;5.282;2022-11-06T15:38:37;6.60;;;2.10;;
70148;SDS011;57514;52.164;5.282;2022-11-06T15:41:05;6.65;;;2.20;;
70148;SDS011;57514;52.164;5.282;2022-11-06T15:43:33;8.05;;;2.15;;
70148;SDS011;57514;52.164;5.282;2022-11-06T15:48:37;9.38;;;2.42;;
70148;SDS011;57514;52.164;5.282;2022-11-06T15:53:46;5.10;;;2.00;;
70148;SDS011;57514;52.164;5.282;2022-11-06T15:56:14;5.47;;;2.20;;
70148;SDS011;57514;52.164;5.282;2022-11-06T15:58:43;5.72;;;1.65;;
70148;SDS011;57514;52.164;5.282;2022-11-06T16:01:10;11.57;;;2.35;;
70148;SDS011;57514;52.164;5.282;2022-11-06T16:03:47;5.60;;;2.10;;
70148;SDS011;57514;52.164;5.282;2022-11-06T16:06:16;6.05;;;2.55;;
70148;SDS011;57514;52.164;5.282;2022-11-06T16:08:44;7.38;;;2.03;;
70148;SDS011;57514;52.164;5.282;2022-11-06T16:11:15;5.75;;;1.58;;
70148;SDS011;57514;52.164;5.282;2022-11-06T16:13:43;8.80;;;1.60;;
70148;SDS011;57514;52.164;5.282;2022-11-06T16:16:31;4.38;;;1.98;;
70148;SDS011;57514;52.164;5.282;2022-11-06T16:18:58;8.00;;;2.13;;
70148;SDS011;57514;52.164;5.282;2022-11-06T16:21:28;7.50;;;2.22;;
70148;SDS011;57514;52.164;5.282;2022-11-06T16:23:58;8.90;;;2.10;;
70148;SDS011;57514;52.164;5.282;2022-11-06T16:26:27;4.25;;;1.83;;
70148;SDS011;57514;52.164;5.282;2022-11-06T16:29:02;6.60;;;2.20;;
70148;SDS011;57514;52.164;5.282;2022-11-06T16:31:34;8.48;;;2.63;;
70148;SDS011;57514;52.164;5.282;2022-11-06T16:34:03;4.72;;;1.65;;
70148;SDS011;57514;52.164;5.282;2022-11-06T16:36:47;7.05;;;1.58;;
70148;SDS011;57514;52.164;5.282;2022-11-06T16:47:09;6.18;;;1.80;;
70148;SDS011;57514;52.164;5.282;2022-11-06T16:49:38;6.75;;;2.33;;
70148;SDS011;57514;52.164;5.282;2022-11-06T16:52:15;7.28;;;2.15;;
70148;SDS011;57514;52.164;5.282;2022-11-06T16:54:47;7.97;;;2.35;;